Terminal Aerodrome Forecast
Issued by NWS Burlington, VT

Home | Current Version | Previous Version | Text Only | Print | Product List | Glossary On
Versions: 1 2 3 4 5 6 7 8 9 10 11 12 13 14 15 16 17 18 19 20 21 22 23
000
FTUS41 KBTV 012320
TAFBTV
TAF
KBTV 012320Z 0200/0224 36006KT P6SM OVC080
     FM020900 03007KT 1 1/2SM -SN BR OVC035
     FM021200 02008KT 3/4SM -SN BR OVC008
     FM022000 01012KT 1 1/2SM -SN BR OVC012=

USA.gov is the U.S. government's official web portal to all federal, state and local government web resources and services.